Ardsley On Hudson, NY (10503)

8:29 PM EDT on July 30, 2016 (GMT -0400)
Riverview Manor | | Change Station

Elev 295 ft 41.00 °N, 73.88 °W | Updated 21 seconds ago

Light Rain
Light Rain Mist
73.9 °F
Feels Like 71 °F
N
0.0
Wind Variable Wind from West
Gusts 0.0 mph

Today
High -- | Low -- °F
--% Chance of Precip.
Yesterday
High -- | Low -- °F
Precip. -- in
Pressure 30.04 in
Visibility 5.0 miles
Clouds Few 1000 ft
Mostly Cloudy 1700 ft
Overcast 8500 ft
Heat Index 71 °F
Dew Point 73 °F
Humidity 96%
Rainfall 0.40 in
Snow Depth Not available.
5:49 AM 8:13 PM
Waning Crescent, 10% visible
METAR KHPN 302356Z 00000KT 5SM -RA BR FEW010 BKN017 OVC085 23/22 A3005 RMK AO2 SLP170 P0002 60044 T02330217 10289 20233 51012 $
Pressure 30.04 in
Visibility 5.0 miles
Clouds Few 1000 ft
Mostly Cloudy 1700 ft
Overcast 8500 ft
Heat Index 71 °F
Dew Point 73 °F
Humidity 96%
Rainfall 0.40 in
Snow Depth Not available.
5:49 AM 8:13 PM
Waning Crescent, 10% visible
METAR KHPN 302356Z 00000KT 5SM -RA BR FEW010 BKN017 OVC085 23/22 A3005 RMK AO2 SLP170 P0002 60044 T02330217 10289 20233 51012 $

10-Day Weather Forecast

Almanac

Astronomy

Jul. 30, 2016 Rise Set
Actual Time
Civil Twilight
Nautical Twilight
Astronomical Twilight
Moon
Length of Visible Light
Length of Day
Tomorrow will be .
, % of the Moon is Illuminated

Today's Extremes

State Highs State Lows

Community

WunderPhotos

Upload Photos

1,928,682 photos uploaded!

WunderBlog® & News

Nearby

Air Quality

  Air Quality AQ Index Pollutant
Not available.

Snow Depth

Station Depth Elevation

Earthquake Activity

City Distance Mag. Time & Date
Minimum magnitude displayed is 2.5.

Coastal Water Temperatures

Place Temperature

Stations

Nearby Weather Stations

Station Location Temp. Windchill Dew Point Humidity Wind Precip. Elev Updated Type
                   

Watches & Warnings

There are currently no watches in effect.